Terminal Aerodrome Forecast
Issued by NWS

Home | Current Version | Previous Version | Graphics & Text | Print | Product List | Glossary On
Versions: 1 2 3 4 5 6 7 8 9 10 11 12 13 14 15 16
000
FTUS43 KMPX 030520
TAFRWF
TAF
KRWF 030520Z 0306/0406 16015KT P6SM OVC080
     FM030900 16012KT 3SM -SN OVC030
     FM031100 16009KT 1 1/2SM -SN OVC008
     FM031600 33021G31KT 1/2SM -SN BLSN OVC005
     FM031900 32025G34KT 3/4SM BLSN FEW007 BKN020
     FM040100 30015G25KT P6SM SKC=

USA.gov is the U.S. government's official web portal to all federal, state and local government web resources and services.